Time;durP1;ratioP1;P1;durP2;ratioP2;P2;SDS_P1;SDS_P2;PMS_P1;PMS_P2;Temp;Humidity;BMP_temperature;BMP_pressure;BME280_temperature;BME280_humidity;BME280_pressure;Samples;Min_cycle;Max_cycle;Signal;HPM_P1;HPM_P2
2024/03/28 00:01:21;;;;;;;;;;;8.30;1.00;;;;;;5067082;28;19916;-78
2024/03/28 00:04:19;;;;;;;;;;;8.40;1.00;;;;;;5070471;28;20319;-77
2024/03/28 00:06:49;;;;;;;;;;;8.30;1.00;;;;;;5063747;28;19909;-77
2024/03/28 00:09:19;;;;;;;;;;;8.40;1.00;;;;;;5052459;28;19919;-77
2024/03/28 00:12:13;;;;;;;;;;;8.30;1.00;;;;;;5053818;28;19951;-79
2024/03/28 00:15:13;;;;;;;;;;;8.30;1.00;;;;;;5055614;28;19923;-79
2024/03/28 00:20:41;;;;;;;;;;;8.30;1.00;;;;;;5048338;28;19959;-79
2024/03/28 00:23:37;;;;;;;;;;;8.20;1.00;;;;;;5033392;28;20305;-79
2024/03/28 00:26:08;;;;;;;;;;;8.30;1.00;;;;;;5043109;28;19915;-79
2024/03/28 00:29:07;;;;;;;;;;;8.30;1.00;;;;;;5042902;28;20382;-81
2024/03/28 00:32:07;;;;;;;;;;;8.30;1.00;;;;;;5040822;28;20004;-79
2024/03/28 00:34:32;;;;;;;;;;;8.30;1.00;;;;;;5073196;28;19916;-79
2024/03/28 00:37:07;;;;;;;;;;;8.30;1.00;;;;;;5067838;28;19916;-79
2024/03/28 00:39:49;;;;;;;;;;;8.30;1.00;;;;;;5040016;28;19909;-79
2024/03/28 00:42:31;;;;;;;;;;;8.20;1.00;;;;;;5042533;28;19908;-77
2024/03/28 00:45:07;;;;;;;;;;;8.20;1.00;;;;;;5053017;28;19919;-78
2024/03/28 00:47:37;;;;;;;;;;;8.20;1.00;;;;;;5045667;28;20348;-77
2024/03/28 00:56:08;;;;;;;;;;;8.10;1.00;;;;;;5057121;28;20011;-77
2024/03/28 01:04:40;;;;;;;;;;;7.90;1.00;;;;;;5055862;28;19955;-79
2024/03/28 01:10:09;;;;;;;;;;;7.90;1.00;;;;;;5058681;28;19916;-79
2024/03/28 01:12:43;;;;;;;;;;;8.00;1.00;;;;;;5058585;28;20291;-79
2024/03/28 01:18:13;;;;;;;;;;;7.90;1.00;;;;;;5066175;28;19920;-79
2024/03/28 01:21:07;;;;;;;;;;;8.00;1.00;;;;;;5056775;28;19909;-79
2024/03/28 01:26:35;;;;;;;;;;;7.90;1.00;;;;;;5069207;28;19920;-79
2024/03/28 01:29:01;;;;;;;;;;;7.80;1.00;;;;;;5061562;28;20585;-79
2024/03/28 01:35:01;;;;;;;;;;;7.80;1.00;;;;;;5065500;28;19970;-79
2024/03/28 01:37:31;;;;;;;;;;;7.80;1.00;;;;;;5076632;28;20402;-79
2024/03/28 01:43:13;;;;;;;;;;;7.70;1.00;;;;;;5056669;28;19959;-79
2024/03/28 01:45:39;;;;;;;;;;;7.70;1.00;;;;;;5056137;28;19913;-79
2024/03/28 01:51:08;;;;;;;;;;;;;;;;;;5056456;28;19923;-80
2024/03/28 01:53:37;;;;;;;;;;;7.70;1.00;;;;;;5064943;28;19921;-79
2024/03/28 01:59:06;;;;;;;;;;;7.50;1.00;;;;;;5055943;28;20344;-77
2024/03/28 02:02:07;;;;;;;;;;;7.50;1.00;;;;;;5064877;28;19912;-77
2024/03/28 02:08:13;;;;;;;;;;;7.50;1.00;;;;;;5048666;28;19920;-77
2024/03/28 02:11:13;;;;;;;;;;;7.50;1.00;;;;;;5058563;28;19924;-77
2024/03/28 02:14:13;;;;;;;;;;;7.40;1.00;;;;;;5064964;28;19920;-80
2024/03/28 02:16:50;;;;;;;;;;;7.50;1.00;;;;;;5075598;28;19921;-80
2024/03/28 02:25:21;;;;;;;;;;;7.40;1.00;;;;;;5059199;28;19919;-79
2024/03/28 02:30:51;;;;;;;;;;;7.40;1.00;;;;;;5053979;28;20331;-77
2024/03/28 02:36:19;;;;;;;;;;;7.30;1.00;;;;;;5056146;28;19970;-77
2024/03/28 02:41:47;;;;;;;;;;;7.20;1.00;;;;;;5054923;28;19952;-77
2024/03/28 02:44:13;;;;;;;;;;;7.20;1.00;;;;;;5060294;28;19948;-78
2024/03/28 02:47:01;;;;;;;;;;;7.10;1.00;;;;;;5065051;28;19912;-77
2024/03/28 02:52:43;;;;;;;;;;;7.00;1.00;;;;;;5035748;28;19959;-77
2024/03/28 02:58:11;;;;;;;;;;;6.80;1.00;;;;;;5070358;28;19928;-79
2024/03/28 03:00:55;;;;;;;;;;;6.80;1.00;;;;;;5056002;28;19909;-80
2024/03/28 03:06:49;;;;;;;;;;;6.70;1.00;;;;;;5055315;28;19970;-79
2024/03/28 03:09:19;;;;;;;;;;;6.60;1.00;;;;;;5054787;28;19920;-79
2024/03/28 03:11:55;;;;;;;;;;;6.50;1.00;;;;;;5055992;28;19909;-79
2024/03/28 03:20:27;;;;;;;;;;;6.30;1.00;;;;;;5065397;28;20399;-77
2024/03/28 03:26:19;;;;;;;;;;;6.00;1.00;;;;;;5054524;28;20280;-78
2024/03/28 03:34:35;;;;;;;;;;;5.60;1.00;;;;;;5056167;28;19919;-77
2024/03/28 03:37:08;;;;;;;;;;;5.50;1.00;;;;;;5062679;28;19917;-77
2024/03/28 03:39:52;;;;;;;;;;;5.40;1.00;;;;;;5052543;28;20023;-78
2024/03/28 03:45:21;;;;;;;;;;;5.30;1.00;;;;;;5046995;28;19916;-79
2024/03/28 03:50:52;;;;;;;;;;;5.10;1.00;;;;;;5053789;28;20000;-79
2024/03/28 03:53:25;;;;;;;;;;;5.00;1.00;;;;;;5053641;28;19939;-79
2024/03/28 03:56:07;;;;;;;;;;;4.90;1.00;;;;;;5043074;28;19967;-77
2024/03/28 04:04:43;;;;;;;;;;;4.80;1.00;;;;;;5057440;28;19928;-77
2024/03/28 04:10:43;;;;;;;;;;;4.70;1.00;;;;;;5066933;28;19967;-77
2024/03/28 04:16:11;;;;;;;;;;;4.50;1.00;;;;;;5057031;28;20382;-78
2024/03/28 04:18:37;;;;;;;;;;;4.50;1.00;;;;;;5056802;28;19917;-78
2024/03/28 04:24:06;;;;;;;;;;;4.40;1.00;;;;;;5053319;28;19923;-78
2024/03/28 04:36:01;;;;;;;;;;;4.20;1.00;;;;;;5066475;28;20050;-78
2024/03/28 04:38:49;;;;;;;;;;;4.20;1.00;;;;;;5035456;28;19960;-79
2024/03/28 04:41:37;;;;;;;;;;;4.10;1.00;;;;;;5060566;28;19955;-78
2024/03/28 04:44:13;;;;;;;;;;;4.10;1.00;;;;;;5057331;28;19948;-76
2024/03/28 04:46:43;;;;;;;;;;;4.10;1.00;;;;;;5056523;28;19917;-77
2024/03/28 04:49:09;;;;;;;;;;;4.00;1.00;;;;;;5060042;28;19917;-79
2024/03/28 04:57:41;;;;;;;;;;;3.80;1.00;;;;;;5049575;28;19919;-77
2024/03/28 05:00:31;;;;;;;;;;;3.80;1.00;;;;;;5055578;28;19913;-79
2024/03/28 05:03:01;;;;;;;;;;;3.70;1.00;;;;;;5049114;28;19941;-77
2024/03/28 05:08:31;;;;;;;;;;;3.70;1.00;;;;;;5053748;28;19959;-78
2024/03/28 05:11:13;;;;;;;;;;;3.70;1.00;;;;;;5056073;28;19962;-77
2024/03/28 05:13:39;;;;;;;;;;;3.60;1.00;;;;;;5059774;28;19916;-77
2024/03/28 05:16:15;;;;;;;;;;;3.50;1.00;;;;;;5057465;28;19916;-78
2024/03/28 05:18:44;;;;;;;;;;;3.40;1.00;;;;;;5035017;28;19913;-81
2024/03/28 05:24:12;;;;;;;;;;;3.40;1.00;;;;;;5052408;28;19971;-78
2024/03/28 05:27:02;;;;;;;;;;;3.40;1.00;;;;;;5059800;28;19967;-78
2024/03/28 05:29:31;;;;;;;;;;;3.40;1.00;;;;;;5055793;28;19917;-79
2024/03/28 05:32:01;;;;;;;;;;;3.40;1.00;;;;;;5035057;28;20388;-80
2024/03/28 05:37:19;;;;;;;;;;;3.40;1.00;;;;;;5052343;28;20284;-79
2024/03/28 05:40:01;;;;;;;;;;;3.40;1.00;;;;;;5066159;28;19909;-80
2024/03/28 05:42:37;;;;;;;;;;;3.40;1.00;;;;;;5056261;28;19996;-79
2024/03/28 05:48:07;;;;;;;;;;;3.40;1.00;;;;;;5056075;28;19919;-76
2024/03/28 05:50:43;;;;;;;;;;;3.40;1.00;;;;;;5042473;28;19917;-77
2024/03/28 05:56:25;;;;;;;;;;;3.30;1.00;;;;;;5050492;28;20353;-77
2024/03/28 05:59:01;;;;;;;;;;;3.40;1.00;;;;;;5055793;28;19909;-77
2024/03/28 06:01:27;;;;;;;;;;;3.50;1.00;;;;;;5059099;28;19920;-79
2024/03/28 06:06:56;;;;;;;;;;;3.60;1.00;;;;;;5055829;28;19959;-79
2024/03/28 06:09:31;;;;;;;;;;;3.70;1.00;;;;;;5067782;28;19913;-79
2024/03/28 06:12:07;;;;;;;;;;;3.80;1.00;;;;;;5067439;28;19913;-79
2024/03/28 06:14:38;;;;;;;;;;;3.90;1.00;;;;;;5054774;28;19924;-79
2024/03/28 06:17:04;;;;;;;;;;;4.10;1.00;;;;;;5065919;28;20011;-79
2024/03/28 06:19:30;;;;;;;;;;;4.30;1.00;;;;;;5055130;28;20413;-79
2024/03/28 06:24:58;;;;;;;;;;;4.60;1.00;;;;;;5042660;28;19974;-79
2024/03/28 06:30:40;;;;;;;;;;;5.00;1.00;;;;;;5067389;28;20287;-79
2024/03/28 06:45:17;;;;;;;;;;;6.10;1.00;;;;;;5057576;28;20444;-79
2024/03/28 06:47:43;;;;;;;;;;;6.20;1.00;;;;;;5063481;28;19995;-79
2024/03/28 06:53:14;;;;;;;;;;;6.90;1.00;;;;;;5054510;28;19958;-79
2024/03/28 06:56:07;;;;;;;;;;;6.90;1.00;;;;;;5055320;28;19915;-79
2024/03/28 06:59:07;;;;;;;;;;;7.10;1.00;;;;;;5034946;28;19909;-79
2024/03/28 07:02:07;;;;;;;;;;;7.20;1.00;;;;;;5061407;28;19913;-77
2024/03/28 07:05:07;;;;;;;;;;;7.60;1.00;;;;;;5059123;28;19920;-77
2024/03/28 07:08:07;;;;;;;;;;;7.60;1.00;;;;;;5041531;28;19963;-77
2024/03/28 07:11:02;;;;;;;;;;;7.70;1.00;;;;;;5034922;28;19949;-77
2024/03/28 07:13:31;;;;;;;;;;;7.80;1.00;;;;;;5057926;28;19920;-77
2024/03/28 07:16:19;;;;;;;;;;;7.90;1.00;;;;;;5057025;28;20000;-77
2024/03/28 07:18:49;;;;;;;;;;;7.90;1.00;;;;;;5030282;28;20535;-77
2024/03/28 07:21:31;;;;;;;;;;;7.80;1.00;;;;;;5074694;28;19991;-77
2024/03/28 07:24:01;;;;;;;;;;;7.80;1.00;;;;;;5040681;28;19913;-76
2024/03/28 07:26:55;;;;;;;;;;;7.80;1.00;;;;;;5066096;28;19920;-77
2024/03/28 07:29:21;;;;;;;;;;;7.90;1.00;;;;;;5045199;28;20336;-76
2024/03/28 07:31:55;;;;;;;;;;;7.90;1.00;;;;;;5057992;28;19909;-77
2024/03/28 07:34:55;;;;;;;;;;;8.00;1.00;;;;;;5054004;28;19912;-76
2024/03/28 07:37:31;;;;;;;;;;;8.00;1.00;;;;;;5051234;28;19999;-77
2024/03/28 07:39:57;;;;;;;;;;;8.00;1.00;;;;;;5054697;28;19928;-76
2024/03/28 07:42:55;;;;;;;;;;;8.00;1.00;;;;;;5056287;28;19917;-76
2024/03/28 07:45:25;;;;;;;;;;;8.00;1.00;;;;;;5056990;28;19909;-77
2024/03/28 07:47:55;;;;;;;;;;;7.90;1.00;;;;;;5059696;28;19920;-77
2024/03/28 07:50:21;;;;;;;;;;;8.00;1.00;;;;;;5039957;28;19909;-77
2024/03/28 07:53:13;;;;;;;;;;;7.90;1.00;;;;;;5052877;28;19915;-78
2024/03/28 07:55:43;;;;;;;;;;;7.70;1.00;;;;;;5053330;28;20007;-77
2024/03/28 07:58:43;;;;;;;;;;;7.80;1.00;;;;;;5056105;28;20007;-77
2024/03/28 08:01:37;;;;;;;;;;;7.80;1.00;;;;;;5053439;28;20011;-76
2024/03/28 08:07:19;;;;;;;;;;;7.70;1.00;;;;;;5047286;28;19974;-77
2024/03/28 08:13:02;;;;;;;;;;;7.60;1.00;;;;;;5055658;28;19920;-78
2024/03/28 08:18:31;;;;;;;;;;;7.80;1.00;;;;;;5052843;28;19936;-77
2024/03/28 08:21:00;;;;;;;;;;;7.90;1.00;;;;;;5056855;28;20359;-77
2024/03/28 08:23:55;;;;;;;;;;;7.70;1.00;;;;;;5050214;28;19959;-77
2024/03/28 08:26:49;;;;;;;;;;;7.80;1.00;;;;;;5031161;28;19961;-77
2024/03/28 08:32:43;;;;;;;;;;;8.10;1.00;;;;;;5063835;28;19958;-77
2024/03/28 08:35:33;;;;;;;;;;;8.30;1.00;;;;;;5052332;28;19920;-77
2024/03/28 08:38:01;;;;;;;;;;;8.40;1.00;;;;;;5060938;28;19920;-78
2024/03/28 08:40:49;;;;;;;;;;;8.60;1.00;;;;;;5053097;28;19963;-77
2024/03/28 08:52:24;;;;;;;;;;;8.40;1.00;;;;;;5054005;28;19959;-79
2024/03/28 08:57:53;;;;;;;;;;;8.10;1.00;;;;;;5064789;28;19923;-79
2024/03/28 09:00:19;;;;;;;;;;;8.20;1.00;;;;;;5055515;28;19912;-80
2024/03/28 09:05:56;;;;;;;;;;;8.70;1.00;;;;;;5050300;28;19908;-79
2024/03/28 09:11:28;;;;;;;;;;;8.80;1.00;;;;;;5063495;28;19916;-81
2024/03/28 09:13:54;;;;;;;;;;;9.20;1.00;;;;;;5059229;28;19981;-79
2024/03/28 09:16:55;;;;;;;;;;;9.50;1.00;;;;;;5063261;28;20364;-78
2024/03/28 09:25:27;;;;;;;;;;;9.00;1.00;;;;;;5045169;28;19970;-80
2024/03/28 09:28:07;;;;;;;;;;;9.00;1.00;;;;;;5053575;28;20384;-80
2024/03/28 09:31:07;;;;;;;;;;;9.10;1.00;;;;;;5076241;28;19959;-80
2024/03/28 09:33:43;;;;;;;;;;;8.70;1.00;;;;;;5065670;28;19991;-83
2024/03/28 09:42:18;;;;;;;;;;;8.60;1.00;;;;;;5055423;28;19974;-87
2024/03/28 09:45:07;;;;;;;;;;;8.70;1.00;;;;;;5053746;28;20504;-86
2024/03/28 09:48:07;;;;;;;;;;;8.60;1.00;;;;;;5048988;28;20002;-87
2024/03/28 09:50:35;;;;;;;;;;;8.70;1.00;;;;;;5067577;28;19957;-87
2024/03/28 09:59:07;;;;;;;;;;;9.10;1.00;;;;;;5056756;28;19915;-78
2024/03/28 10:01:41;;;;;;;;;;;9.10;1.00;;;;;;5046645;28;19913;-78
2024/03/28 10:04:13;;;;;;;;;;;9.40;1.00;;;;;;5040160;28;19912;-78
2024/03/28 10:10:07;;;;;;;;;;;9.90;1.00;;;;;;5045766;28;19955;-77
2024/03/28 10:12:38;;;;;;;;;;;10.30;1.00;;;;;;5055641;28;19916;-78
2024/03/28 10:15:19;;;;;;;;;;;10.30;1.00;;;;;;5055897;28;19916;-78
2024/03/28 10:18:07;;;;;;;;;;;10.60;1.00;;;;;;5048944;28;20296;-77
2024/03/28 10:20:53;;;;;;;;;;;10.60;1.00;;;;;;5075734;28;19912;-78
2024/03/28 10:23:50;;;;;;;;;;;10.50;1.00;;;;;;5035882;28;20085;-77
2024/03/28 10:26:19;;;;;;;;;;;10.80;1.00;;;;;;5034659;28;19910;-78
2024/03/28 10:28:45;;;;;;;;;;;11.00;1.00;;;;;;5037342;28;19996;-78
2024/03/28 10:31:38;;;;;;;;;;;11.20;1.00;;;;;;5055470;28;19948;-77
2024/03/28 10:34:03;;;;;;;;;;;11.20;1.00;;;;;;5045848;28;19970;-78
2024/03/28 10:36:29;;;;;;;;;;;11.30;1.00;;;;;;5055317;28;20336;-77
2024/03/28 10:39:01;;;;;;;;;;;11.30;1.00;;;;;;5054735;28;19943;-78
2024/03/28 10:41:30;;;;;;;;;;;11.30;1.00;;;;;;5055384;28;20008;-78
2024/03/28 10:44:00;;;;;;;;;;;11.10;1.00;;;;;;5044000;28;19909;-77
2024/03/28 10:46:26;;;;;;;;;;;11.10;1.00;;;;;;5035288;28;19932;-77
2024/03/28 10:48:58;;;;;;;;;;;11.30;1.00;;;;;;5070539;28;20022;-76
2024/03/28 10:51:43;;;;;;;;;;;11.20;1.00;;;;;;5055542;28;19912;-78
2024/03/28 10:54:25;;;;;;;;;;;11.50;1.00;;;;;;5068315;28;19916;-78
2024/03/28 10:56:54;;;;;;;;;;;11.60;1.00;;;;;;5055144;28;20356;-77
2024/03/28 10:59:20;;;;;;;;;;;11.70;1.00;;;;;;5061481;28;20407;-78
2024/03/28 11:01:56;;;;;;;;;;;11.70;1.00;;;;;;5055215;28;19908;-77
2024/03/28 11:04:23;;;;;;;;;;;11.90;1.00;;;;;;5054886;28;19913;-78
2024/03/28 11:06:56;;;;;;;;;;;12.10;1.00;;;;;;5054748;28;19913;-77
2024/03/28 11:09:28;;;;;;;;;;;12.30;1.00;;;;;;5039603;28;19916;-77
2024/03/28 11:11:56;;;;;;;;;;;12.70;1.00;;;;;;5048677;28;19962;-77
2024/03/28 11:14:33;;;;;;;;;;;12.70;1.00;;;;;;5054715;28;19917;-78
2024/03/28 11:20:03;;;;;;;;;;;12.60;1.00;;;;;;5034861;28;19916;-78
2024/03/28 11:22:31;;;;;;;;;;;12.70;1.00;;;;;;5032261;28;19913;-77
2024/03/28 11:24:57;;;;;;;;;;;12.40;1.00;;;;;;5050305;28;19963;-77
2024/03/28 11:27:23;;;;;;;;;;;12.40;1.00;;;;;;5056497;28;19951;-77
2024/03/28 11:29:50;;;;;;;;;;;12.40;1.00;;;;;;5052139;28;19920;-77
2024/03/28 11:32:22;;;;;;;;;;;12.40;1.00;;;;;;5053840;28;19909;-78
2024/03/28 11:35:21;;;;;;;;;;;12.30;1.00;;;;;;5058831;28;19958;-77
2024/03/28 11:37:51;;;;;;;;;;;12.20;1.00;;;;;;5009537;28;20355;-76
2024/03/28 11:40:25;;;;;;;;;;;11.70;1.00;;;;;;5003974;28;20385;-76
2024/03/28 11:43:22;;;;;;;;;;;11.20;1.00;;;;;;4999173;28;19916;-77
2024/03/28 11:45:50;;;;;;;;;;;10.50;1.00;;;;;;4931112;29;19915;-77
2024/03/28 11:48:43;;;;;;;;;;;10.10;1.00;;;;;;4918329;29;19911;-77
2024/03/28 11:51:20;;;;;;;;;;;9.50;1.00;;;;;;4921009;29;19994;-76
2024/03/28 11:54:07;;;;;;;;;;;9.20;1.00;;;;;;4920925;29;19978;-77
2024/03/28 11:56:44;;;;;;;;;;;9.30;1.00;;;;;;4926435;29;19911;-77
2024/03/28 11:59:43;;;;;;;;;;;9.40;1.00;;;;;;4919901;29;20356;-77
2024/03/28 12:05:31;;;;;;;;;;;10.40;1.00;;;;;;4917276;29;19919;-77
2024/03/28 12:08:02;;;;;;;;;;;10.50;1.00;;;;;;4930948;29;19919;-76
2024/03/28 12:10:55;;;;;;;;;;;10.80;1.00;;;;;;4906871;29;19922;-76
2024/03/28 12:13:38;;;;;;;;;;;10.70;1.00;;;;;;4953171;28;19937;-77
2024/03/28 12:16:14;;;;;;;;;;;10.80;1.00;;;;;;4976617;28;19924;-77
2024/03/28 12:18:45;;;;;;;;;;;10.80;1.00;;;;;;4985606;28;20532;-77
2024/03/28 12:21:17;;;;;;;;;;;11.10;1.00;;;;;;4980700;28;19921;-78
2024/03/28 12:23:49;;;;;;;;;;;11.30;1.00;;;;;;5054271;28;19913;-78
2024/03/28 12:26:31;;;;;;;;;;;11.40;1.00;;;;;;5045790;28;19909;-77
2024/03/28 12:29:19;;;;;;;;;;;11.40;1.00;;;;;;5050945;28;19913;-77
2024/03/28 12:31:49;;;;;;;;;;;11.40;1.00;;;;;;5053075;28;19916;-77
2024/03/28 12:34:15;;;;;;;;;;;11.40;1.00;;;;;;5044680;28;20364;-74
2024/03/28 12:36:52;;;;;;;;;;;11.40;1.00;;;;;;5052198;28;20003;-77
2024/03/28 12:39:49;;;;;;;;;;;11.50;1.00;;;;;;5033396;28;19917;-77
2024/03/28 12:42:37;;;;;;;;;;;11.50;1.00;;;;;;5052077;28;19916;-77
2024/03/28 12:51:09;;;;;;;;;;;11.90;1.00;;;;;;5035097;28;19971;-77
2024/03/28 12:53:38;;;;;;;;;;;12.00;1.00;;;;;;5048186;28;19912;-76
2024/03/28 12:56:04;;;;;;;;;;;12.10;1.00;;;;;;5051482;28;19923;-75
2024/03/28 12:58:43;;;;;;;;;;;12.30;1.00;;;;;;5057039;28;20002;-84
2024/03/28 13:01:19;;;;;;;;;;;12.50;1.00;;;;;;5052582;28;19920;-81
2024/03/28 13:04:20;;;;;;;;;;;12.50;1.00;;;;;;5054891;28;19975;-80
2024/03/28 13:09:49;;;;;;;;;;;12.50;1.00;;;;;;5054842;28;19923;-80
2024/03/28 13:12:15;;;;;;;;;;;12.70;1.00;;;;;;5049199;28;20007;-82
2024/03/28 13:17:44;;;;;;;;;;;12.70;1.00;;;;;;5052567;28;19994;-77
2024/03/28 13:20:37;;;;;;;;;;;12.70;1.00;;;;;;5057615;28;20372;-76
2024/03/28 13:23:19;;;;;;;;;;;12.70;1.00;;;;;;5052660;28;19913;-82
2024/03/28 13:25:55;;;;;;;;;;;13.00;1.00;;;;;;5046771;28;19909;-81
2024/03/28 13:28:55;;;;;;;;;;;13.10;1.00;;;;;;5042744;28;19913;-81
2024/03/28 13:40:29;;;;;;;;;;;14.00;1.00;;;;;;5051914;28;19971;-81
2024/03/28 13:49:31;;;;;;;;;;;14.20;1.00;;;;;;5045565;28;19916;-82
2024/03/28 13:55:07;;;;;;;;;;;14.80;1.00;;;;;;5049010;28;19924;-79
2024/03/28 13:57:50;;;;;;;;;;;15.30;1.00;;;;;;5053536;28;20004;-79
2024/03/28 14:00:15;;;;;;;;;;;15.60;1.00;;;;;;5044627;28;20341;-79
2024/03/28 14:02:42;;;;;;;;;;;15.40;1.00;;;;;;5038833;28;19913;-79
2024/03/28 14:05:25;;;;;;;;;;;15.20;1.00;;;;;;5041364;28;19932;-77
2024/03/28 14:07:55;;;;;;;;;;;14.70;1.00;;;;;;5040077;28;19940;-78
2024/03/28 14:10:43;;;;;;;;;;;14.60;1.00;;;;;;5059563;28;19944;-78
2024/03/28 14:13:20;;;;;;;;;;;14.50;1.00;;;;;;5052091;28;19917;-77
2024/03/28 14:18:56;;;;;;;;;;;13.90;1.00;;;;;;5057325;28;20379;-77
2024/03/28 14:21:43;;;;;;;;;;;13.60;1.00;;;;;;5058745;28;19944;-78
2024/03/28 14:24:43;;;;;;;;;;;13.60;1.00;;;;;;5075740;28;19963;-77
2024/03/28 14:27:43;;;;;;;;;;;13.60;1.00;;;;;;5053628;28;20007;-79
2024/03/28 14:30:43;;;;;;;;;;;13.60;1.00;;;;;;5048276;28;19921;-80
2024/03/28 14:33:43;;;;;;;;;;;13.60;1.00;;;;;;5055530;28;19966;-79
2024/03/28 14:36:12;;;;;;;;;;;13.50;1.00;;;;;;5035424;28;20388;-78
2024/03/28 14:38:38;;;;;;;;;;;13.30;1.00;;;;;;5034520;28;20355;-77
2024/03/28 14:41:07;;;;;;;;;;;13.30;1.00;;;;;;5055089;28;19917;-81
2024/03/28 14:43:44;;;;;;;;;;;13.00;1.00;;;;;;5063767;28;20016;-76
2024/03/28 14:46:43;;;;;;;;;;;13.00;1.00;;;;;;5055766;28;20425;-77
2024/03/28 14:49:19;;;;;;;;;;;13.10;1.00;;;;;;5056295;28;19974;-77
2024/03/28 14:51:45;;;;;;;;;;;13.30;1.00;;;;;;5055501;28;19909;-75
2024/03/28 14:54:13;;;;;;;;;;;13.90;1.00;;;;;;5055060;28;19939;-75
2024/03/28 14:56:39;;;;;;;;;;;14.00;1.00;;;;;;5055999;28;19917;-75
2024/03/28 14:59:13;;;;;;;;;;;14.10;1.00;;;;;;5055107;28;19909;-75
2024/03/28 15:01:50;;;;;;;;;;;14.10;1.00;;;;;;5054667;28;19913;-76
2024/03/28 15:04:20;;;;;;;;;;;14.10;1.00;;;;;;5050353;28;19919;-75
2024/03/28 15:06:45;;;;;;;;;;;13.90;1.00;;;;;;5062227;28;19912;-76
2024/03/28 15:09:11;;;;;;;;;;;13.90;1.00;;;;;;5059632;28;19954;-75
2024/03/28 15:11:36;;;;;;;;;;;13.70;1.00;;;;;;5072021;28;19919;-75
2024/03/28 15:14:02;;;;;;;;;;;13.60;1.00;;;;;;5054822;28;19923;-75
2024/03/28 15:16:28;;;;;;;;;;;13.60;1.00;;;;;;5055726;28;20003;-75
2024/03/28 15:18:53;;;;;;;;;;;13.70;1.00;;;;;;5054684;28;19912;-75
2024/03/28 15:21:31;;;;;;;;;;;13.60;1.00;;;;;;5062238;28;19982;-77
2024/03/28 15:24:02;;;;;;;;;;;13.70;1.00;;;;;;5074581;28;19908;-78
2024/03/28 15:26:31;;;;;;;;;;;13.60;1.00;;;;;;5043573;28;20185;-78
2024/03/28 15:29:07;;;;;;;;;;;13.60;1.00;;;;;;5060551;28;19920;-77
2024/03/28 15:31:33;;;;;;;;;;;13.50;1.00;;;;;;5050415;28;20004;-78
2024/03/28 15:37:19;;;;;;;;;;;13.20;1.00;;;;;;5049974;28;19920;-77
2024/03/28 15:39:49;;;;;;;;;;;13.10;1.00;;;;;;5048426;28;19913;-76
2024/03/28 15:42:19;;;;;;;;;;;13.10;1.00;;;;;;5052451;28;19924;-73
2024/03/28 15:44:45;;;;;;;;;;;13.10;1.00;;;;;;5043526;28;19913;-74
2024/03/28 15:47:11;;;;;;;;;;;12.90;1.00;;;;;;5061671;28;19959;-73
2024/03/28 15:49:38;;;;;;;;;;;12.80;1.00;;;;;;5057982;28;20003;-73
2024/03/28 15:52:04;;;;;;;;;;;12.90;1.00;;;;;;5061528;28;20378;-76
2024/03/28 15:54:30;;;;;;;;;;;12.70;1.00;;;;;;5066006;28;19917;-76
2024/03/28 15:56:55;;;;;;;;;;;12.70;1.00;;;;;;5054713;28;19909;-76
2024/03/28 15:59:21;;;;;;;;;;;12.70;1.00;;;;;;5053723;28;19929;-76
2024/03/28 16:01:46;;;;;;;;;;;12.80;1.00;;;;;;5046907;28;19935;-76
2024/03/28 16:04:12;;;;;;;;;;;12.80;1.00;;;;;;5052323;28;19919;-77
2024/03/28 16:06:43;;;;;;;;;;;12.70;1.00;;;;;;5053381;28;19913;-76
2024/03/28 16:09:31;;;;;;;;;;;12.80;1.00;;;;;;5054045;28;19912;-77
2024/03/28 16:12:04;;;;;;;;;;;12.80;1.00;;;;;;5054965;28;20336;-75
2024/03/28 16:14:29;;;;;;;;;;;12.70;1.00;;;;;;5052288;28;20400;-74
2024/03/28 16:16:55;;;;;;;;;;;12.70;1.00;;;;;;5053495;28;19960;-74
2024/03/28 16:19:21;;;;;;;;;;;12.60;1.00;;;;;;5054178;28;19909;-74
2024/03/28 16:21:46;;;;;;;;;;;12.60;1.00;;;;;;5053064;28;19912;-74
2024/03/28 16:24:12;;;;;;;;;;;12.60;1.00;;;;;;5051679;28;20271;-74
2024/03/28 16:26:38;;;;;;;;;;;12.50;1.00;;;;;;5057590;28;19908;-75
2024/03/28 16:29:13;;;;;;;;;;;12.60;1.00;;;;;;5056544;28;19909;-75
2024/03/28 16:31:43;;;;;;;;;;;12.60;1.00;;;;;;5053897;28;20003;-75
2024/03/28 16:34:26;;;;;;;;;;;12.60;1.00;;;;;;5060289;28;19936;-74
2024/03/28 16:36:55;;;;;;;;;;;12.60;1.00;;;;;;5051647;28;20348;-77
2024/03/28 16:39:21;;;;;;;;;;;12.50;1.00;;;;;;5053748;28;19908;-75
2024/03/28 16:41:47;;;;;;;;;;;12.60;1.00;;;;;;5055801;28;19967;-75
2024/03/28 16:44:13;;;;;;;;;;;12.60;1.00;;;;;;5045828;28;19917;-75
2024/03/28 16:46:44;;;;;;;;;;;12.50;1.00;;;;;;5041439;28;19914;-74
2024/03/28 16:49:09;;;;;;;;;;;12.40;1.00;;;;;;5058574;28;19919;-75
2024/03/28 16:51:35;;;;;;;;;;;12.40;1.00;;;;;;5064904;28;19913;-75
2024/03/28 16:54:06;;;;;;;;;;;12.50;1.00;;;;;;5053904;28;19917;-76
2024/03/28 16:56:37;;;;;;;;;;;12.40;1.00;;;;;;5053258;28;20368;-77
2024/03/28 16:59:19;;;;;;;;;;;12.30;1.00;;;;;;5043784;28;19909;-77
2024/03/28 17:02:01;;;;;;;;;;;12.30;1.00;;;;;;5055387;28;19919;-76
2024/03/28 17:04:28;;;;;;;;;;;12.00;1.00;;;;;;5052909;28;19916;-77
2024/03/28 17:07:01;;;;;;;;;;;12.00;1.00;;;;;;5053118;28;19909;-77
2024/03/28 17:09:37;;;;;;;;;;;11.90;1.00;;;;;;5053446;28;19913;-77
2024/03/28 17:12:03;;;;;;;;;;;11.70;1.00;;;;;;5034877;28;19959;-78
2024/03/28 17:14:29;;;;;;;;;;;11.70;1.00;;;;;;5050620;28;19956;-77
2024/03/28 17:16:54;;;;;;;;;;;11.60;1.00;;;;;;5039213;28;20363;-76
2024/03/28 17:19:33;;;;;;;;;;;11.60;1.00;;;;;;5064587;28;19931;-78
2024/03/28 17:22:31;;;;;;;;;;;11.60;1.00;;;;;;5068339;28;19916;-76
2024/03/28 17:25:25;;;;;;;;;;;11.60;1.00;;;;;;5065486;28;19959;-77
2024/03/28 17:28:08;;;;;;;;;;;11.60;1.00;;;;;;5030430;28;19910;-79
2024/03/28 17:30:37;;;;;;;;;;;11.60;1.00;;;;;;5051508;28;19916;-74
2024/03/28 17:33:03;;;;;;;;;;;11.60;1.00;;;;;;5053145;28;20292;-75
2024/03/28 17:35:29;;;;;;;;;;;11.60;1.00;;;;;;5053504;28;19921;-75
2024/03/28 17:38:08;;;;;;;;;;;11.70;1.00;;;;;;5055118;28;19920;-77
2024/03/28 17:40:46;;;;;;;;;;;11.70;1.00;;;;;;5049587;28;19924;-78
2024/03/28 17:43:11;;;;;;;;;;;11.70;1.00;;;;;;5049738;28;19917;-78
2024/03/28 17:46:13;;;;;;;;;;;11.70;1.00;;;;;;5042278;28;19913;-77
2024/03/28 17:48:56;;;;;;;;;;;11.70;1.00;;;;;;5067350;28;20007;-77
2024/03/28 17:51:21;;;;;;;;;;;11.40;1.00;;;;;;5038103;28;19947;-80
2024/03/28 17:53:50;;;;;;;;;;;11.40;1.00;;;;;;5068361;28;19955;-75
2024/03/28 17:56:15;;;;;;;;;;;11.30;1.00;;;;;;5056421;28;19909;-77
2024/03/28 17:59:01;;;;;;;;;;;11.30;1.00;;;;;;5056126;28;19915;-76
2024/03/28 18:01:31;;;;;;;;;;;11.20;1.00;;;;;;5056150;28;19915;-76
2024/03/28 18:04:19;;;;;;;;;;;11.00;1.00;;;;;;5058888;28;19913;-76
2024/03/28 18:06:55;;;;;;;;;;;10.80;1.00;;;;;;5055793;28;19913;-75
2024/03/28 18:09:32;;;;;;;;;;;10.80;1.00;;;;;;5057995;28;19913;-76
2024/03/28 18:12:02;;;;;;;;;;;10.80;1.00;;;;;;5061028;28;19919;-75
2024/03/28 18:15:01;;;;;;;;;;;10.70;1.00;;;;;;5058010;28;19920;-77
2024/03/28 18:17:49;;;;;;;;;;;10.60;1.00;;;;;;5038857;28;19925;-77
2024/03/28 18:20:32;;;;;;;;;;;10.50;1.00;;;;;;5037828;28;19909;-79
2024/03/28 18:23:25;;;;;;;;;;;10.50;1.00;;;;;;5047828;28;19916;-79
2024/03/28 18:25:57;;;;;;;;;;;10.40;1.00;;;;;;5054470;28;19919;-74
2024/03/28 18:28:25;;;;;;;;;;;10.40;1.00;;;;;;5055744;28;19924;-73
2024/03/28 18:30:51;;;;;;;;;;;10.40;1.00;;;;;;5055828;28;19948;-73
2024/03/28 18:33:22;;;;;;;;;;;10.40;1.00;;;;;;5055873;28;19970;-75
2024/03/28 18:35:59;;;;;;;;;;;10.40;1.00;;;;;;5066803;28;19917;-75
2024/03/28 18:38:26;;;;;;;;;;;10.40;1.00;;;;;;5052459;28;19913;-75
2024/03/28 18:43:57;;;;;;;;;;;10.30;1.00;;;;;;5035190;28;19928;-77
2024/03/28 18:46:38;;;;;;;;;;;10.40;1.00;;;;;;5043759;28;19920;-77
2024/03/28 18:49:08;;;;;;;;;;;10.40;1.00;;;;;;5039603;28;19909;-77
2024/03/28 18:51:38;;;;;;;;;;;10.40;1.00;;;;;;5045308;28;19936;-76
2024/03/28 18:54:04;;;;;;;;;;;10.30;1.00;;;;;;5045966;28;19913;-76
2024/03/28 18:56:33;;;;;;;;;;;10.30;1.00;;;;;;5054103;28;19939;-77
2024/03/28 19:02:01;;;;;;;;;;;10.20;1.00;;;;;;5049480;28;20023;-74
2024/03/28 19:04:55;;;;;;;;;;;10.20;1.00;;;;;;5054783;28;19978;-77
2024/03/28 19:07:25;;;;;;;;;;;10.10;1.00;;;;;;5043095;28;19909;-78
2024/03/28 19:09:51;;;;;;;;;;;10.00;1.00;;;;;;5054366;28;20383;-78
2024/03/28 19:12:32;;;;;;;;;;;10.00;1.00;;;;;;5059088;28;20430;-78
2024/03/28 19:18:08;;;;;;;;;;;9.90;1.00;;;;;;5055287;28;20022;-75
2024/03/28 19:20:38;;;;;;;;;;;9.90;1.00;;;;;;5040770;28;19917;-76
2024/03/28 19:23:04;;;;;;;;;;;9.80;1.00;;;;;;5053181;28;20699;-76
2024/03/28 19:25:34;;;;;;;;;;;9.80;1.00;;;;;;5048297;28;19947;-74
2024/03/28 19:28:02;;;;;;;;;;;9.80;1.00;;;;;;5054835;28;19920;-77
2024/03/28 19:30:31;;;;;;;;;;;9.80;1.00;;;;;;5034810;28;19955;-74
2024/03/28 19:32:56;;;;;;;;;;;9.70;1.00;;;;;;5052008;28;19967;-75
2024/03/28 19:35:26;;;;;;;;;;;9.60;1.00;;;;;;5050758;28;19917;-76
2024/03/28 19:37:52;;;;;;;;;;;9.60;1.00;;;;;;5054688;28;19966;-76
2024/03/28 19:40:26;;;;;;;;;;;9.60;1.00;;;;;;5054175;28;19944;-75
2024/03/28 19:42:52;;;;;;;;;;;9.50;1.00;;;;;;5061004;28;19952;-76
2024/03/28 19:45:20;;;;;;;;;;;9.40;1.00;;;;;;5057321;28;19924;-76